createdAt,value
2024-04-08T17:42:55.904Z,33.82
2024-04-08T17:47:59.520Z,30.07
2024-04-08T17:53:01.885Z,29.64
2024-04-08T17:58:04.073Z,29.53
2024-04-08T18:03:06.121Z,29.71
2024-04-08T18:08:08.131Z,30.36
2024-04-08T18:13:10.797Z,29.32
2024-04-08T18:18:12.861Z,28.93
2024-04-08T18:23:17.681Z,27.46
2024-04-08T18:28:19.668Z,29.29
2024-04-08T18:33:22.004Z,27.92
2024-04-08T18:38:24.448Z,29.83
2024-04-08T18:43:26.503Z,27.37
2024-04-08T18:48:28.961Z,26.95
2024-04-08T18:53:31.527Z,28.70
2024-04-08T18:58:33.661Z,24.32
2024-04-08T19:03:35.776Z,23.50
2024-04-08T19:08:37.922Z,22.13
2024-04-08T19:13:39.914Z,23.78
2024-04-08T19:18:42.100Z,25.78
2024-04-08T19:23:44.243Z,23.26
2024-04-08T19:28:46.874Z,22.22
2024-04-08T19:33:48.871Z,22.38
2024-04-08T19:38:50.912Z,22.48
2024-04-08T19:43:52.886Z,22.65
2024-04-08T19:48:55.138Z,23.88
2024-04-08T19:53:57.485Z,25.10
2024-04-08T19:58:59.673Z,23.26
2024-04-08T20:04:01.668Z,24.85
2024-04-08T20:09:04.547Z,23.09
2024-04-08T20:14:06.521Z,24.02
2024-04-08T20:19:09.296Z,23.40
2024-04-08T20:24:11.389Z,23.86
2024-04-08T20:29:13.424Z,23.51
2024-04-08T20:34:15.514Z,23.71
2024-04-08T20:39:17.660Z,25.93
2024-04-08T20:44:22.211Z,24.06
2024-04-08T20:49:24.538Z,21.23
2024-04-08T20:54:26.639Z,23.12
2024-04-08T20:59:30.363Z,22.17
2024-04-08T21:04:32.500Z,21.20
2024-04-08T21:09:37.046Z,21.03
2024-04-08T21:14:39.039Z,21.73
2024-04-08T21:19:41.112Z,21.21
2024-04-08T21:24:43.153Z,21.43
2024-04-08T21:29:45.450Z,21.61
2024-04-08T21:34:47.485Z,21.88
2024-04-08T21:39:49.804Z,20.83
2024-04-08T21:44:51.875Z,21.49
2024-04-08T21:49:53.956Z,20.93
2024-04-08T21:54:55.880Z,21.66
2024-04-08T21:59:58.359Z,21.32
2024-04-08T22:05:00.500Z,22.53
2024-04-08T22:10:02.545Z,22.02
2024-04-08T22:15:05.496Z,20.71
2024-04-08T22:20:09.717Z,21.74
2024-04-08T22:25:11.751Z,21.17
2024-04-08T22:30:14.020Z,21.87
2024-04-08T22:35:16.122Z,21.73
2024-04-08T22:40:18.125Z,24.22
2024-04-08T22:45:20.192Z,23.32
2024-04-08T22:50:22.286Z,21.90
2024-04-08T22:55:24.267Z,22.72
2024-04-08T23:00:26.254Z,21.62
2024-04-08T23:05:29.629Z,21.60
2024-04-08T23:10:31.540Z,21.63
2024-04-08T23:15:35.784Z,20.99
2024-04-08T23:20:37.803Z,21.90
2024-04-08T23:25:39.760Z,22.03
2024-04-08T23:30:41.917Z,21.91
2024-04-08T23:35:43.957Z,22.75
2024-04-08T23:40:45.916Z,28.62
2024-04-08T23:45:58.875Z,29.37
2024-04-08T23:51:01.400Z,29.25
2024-04-08T23:56:03.452Z,28.21
